Candor, North Carolina
Current Conditions -  °F | °C
As of 5:15 PM on Tuesday 21 Oct 2014 (Local Time) from KSOP Reporting Station
Broken Clouds Broken Clouds  
Wind Chill: 70°   Ceiling: 7500
Heat Index: 70°   Visibility: 10mi
Dew Point: 48°   Wind: 3mph
Humidity: 46%   Direction: 270°W
Pressure: 29.85"   Gusts: NA
Location:  35.3°N, 79.75°W
Report Text: KSOP 212115Z AUTO 27003KT 10SM BKN075 21/09 A2985 RMK AO1
Loading
Personal Weather Stations






























Interactive Weather Map
Tropical Storm Tracking
New forecast layout! Learn more

10-Day Weather Forecast

Advertisements
Track Severe Weather on mobile